sensor_id;sensor_type;location;lat;lon;timestamp;P1;durP1;ratioP1;P2;durP2;ratioP2
61204;SDS011;47068;55.780;37.520;2024-03-23T00:53:05;1012.90;;;246.73;;
61204;SDS011;47068;55.780;37.520;2024-03-23T00:55:31;1020.53;;;246.13;;
61204;SDS011;47068;55.780;37.520;2024-03-23T00:57:56;1022.23;;;249.80;;
61204;SDS011;47068;55.780;37.520;2024-03-23T01:00:22;1027.00;;;258.60;;
61204;SDS011;47068;55.780;37.520;2024-03-23T01:02:47;1007.47;;;256.60;;
61204;SDS011;47068;55.780;37.520;2024-03-23T01:05:12;1011.27;;;250.67;;
61204;SDS011;47068;55.780;37.520;2024-03-23T01:07:38;999.67;;;257.10;;
61204;SDS011;47068;55.780;37.520;2024-03-23T01:10:03;1010.30;;;256.30;;
61204;SDS011;47068;55.780;37.520;2024-03-23T01:12:29;1018.42;;;254.65;;
61204;SDS011;47068;55.780;37.520;2024-03-23T01:14:55;1003.07;;;252.67;;
61204;SDS011;47068;55.780;37.520;2024-03-23T01:17:20;1019.60;;;254.47;;
61204;SDS011;47068;55.780;37.520;2024-03-23T01:19:46;1002.97;;;253.95;;
61204;SDS011;47068;55.780;37.520;2024-03-23T01:22:11;1014.80;;;250.73;;
61204;SDS011;47068;55.780;37.520;2024-03-23T01:24:37;994.10;;;254.85;;
61204;SDS011;47068;55.780;37.520;2024-03-23T01:27:03;998.10;;;259.37;;
61204;SDS011;47068;55.780;37.520;2024-03-23T01:29:28;991.58;;;256.88;;
61204;SDS011;47068;55.780;37.520;2024-03-23T01:31:54;1001.10;;;255.33;;
61204;SDS011;47068;55.780;37.520;2024-03-23T01:34:19;981.97;;;248.93;;
61204;SDS011;47068;55.780;37.520;2024-03-23T01:36:46;985.38;;;255.35;;
61204;SDS011;47068;55.780;37.520;2024-03-23T01:39:11;992.20;;;252.07;;
61204;SDS011;47068;55.780;37.520;2024-03-23T01:41:37;984.33;;;258.40;;
61204;SDS011;47068;55.780;37.520;2024-03-23T01:44:07;1007.60;;;256.17;;
61204;SDS011;47068;55.780;37.520;2024-03-23T01:46:33;1006.97;;;251.68;;
61204;SDS011;47068;55.780;37.520;2024-03-23T01:49:00;1024.43;;;259.57;;
61204;SDS011;47068;55.780;37.520;2024-03-23T01:51:26;1037.95;;;257.08;;
61204;SDS011;47068;55.780;37.520;2024-03-23T01:53:53;1065.33;;;262.97;;
61204;SDS011;47068;55.780;37.520;2024-03-23T01:56:20;1141.38;;;279.27;;
61204;SDS011;47068;55.780;37.520;2024-03-23T01:58:45;1216.93;;;298.42;;
61204;SDS011;47068;55.780;37.520;2024-03-23T02:01:11;1010.13;;;253.57;;
61204;SDS011;47068;55.780;37.520;2024-03-23T02:03:37;989.70;;;253.45;;
61204;SDS011;47068;55.780;37.520;2024-03-23T02:06:02;993.70;;;252.23;;
61204;SDS011;47068;55.780;37.520;2024-03-23T02:08:28;1022.88;;;255.02;;
61204;SDS011;47068;55.780;37.520;2024-03-23T02:10:55;985.17;;;257.57;;
61204;SDS011;47068;55.780;37.520;2024-03-23T02:13:21;1002.65;;;259.63;;
61204;SDS011;47068;55.780;37.520;2024-03-23T02:15:46;1011.27;;;254.73;;
61204;SDS011;47068;55.780;37.520;2024-03-23T02:18:12;1009.60;;;251.50;;
61204;SDS011;47068;55.780;37.520;2024-03-23T02:20:38;1016.17;;;253.43;;
61204;SDS011;47068;55.780;37.520;2024-03-23T02:23:04;1013.58;;;251.15;;
61204;SDS011;47068;55.780;37.520;2024-03-23T02:25:33;1026.40;;;256.37;;
61204;SDS011;47068;55.780;37.520;2024-03-23T02:27:59;1010.55;;;258.23;;
61204;SDS011;47068;55.780;37.520;2024-03-23T02:30:25;976.22;;;253.30;;
61204;SDS011;47068;55.780;37.520;2024-03-23T02:32:51;1018.03;;;253.75;;
61204;SDS011;47068;55.780;37.520;2024-03-23T02:35:17;1007.30;;;248.52;;
61204;SDS011;47068;55.780;37.520;2024-03-23T02:37:42;990.70;;;254.50;;
61204;SDS011;47068;55.780;37.520;2024-03-23T02:40:08;982.90;;;252.80;;
61204;SDS011;47068;55.780;37.520;2024-03-23T02:42:33;1003.60;;;252.18;;
61204;SDS011;47068;55.780;37.520;2024-03-23T02:44:59;995.40;;;257.65;;
61204;SDS011;47068;55.780;37.520;2024-03-23T02:47:24;996.85;;;245.40;;
61204;SDS011;47068;55.780;37.520;2024-03-23T02:49:50;987.72;;;257.30;;
61204;SDS011;47068;55.780;37.520;2024-03-23T02:52:16;991.77;;;244.43;;
61204;SDS011;47068;55.780;37.520;2024-03-23T02:54:41;997.20;;;259.57;;
61204;SDS011;47068;55.780;37.520;2024-03-23T02:57:09;1001.40;;;252.67;;
61204;SDS011;47068;55.780;37.520;2024-03-23T02:59:35;994.78;;;258.65;;
61204;SDS011;47068;55.780;37.520;2024-03-23T03:02:01;1002.83;;;261.23;;
61204;SDS011;47068;55.780;37.520;2024-03-23T03:04:26;993.45;;;242.13;;
61204;SDS011;47068;55.780;37.520;2024-03-23T03:06:52;998.92;;;261.40;;
61204;SDS011;47068;55.780;37.520;2024-03-23T03:09:17;1014.33;;;253.73;;
61204;SDS011;47068;55.780;37.520;2024-03-23T03:11:43;1126.63;;;265.07;;
61204;SDS011;47068;55.780;37.520;2024-03-23T03:14:08;1086.30;;;259.90;;
61204;SDS011;47068;55.780;37.520;2024-03-23T03:16:34;1075.07;;;247.43;;
61204;SDS011;47068;55.780;37.520;2024-03-23T03:18:59;1048.63;;;256.00;;
61204;SDS011;47068;55.780;37.520;2024-03-23T03:23:52;1078.10;;;247.33;;
61204;SDS011;47068;55.780;37.520;2024-03-23T03:26:17;1063.70;;;250.23;;
61204;SDS011;47068;55.780;37.520;2024-03-23T03:28:43;1066.53;;;255.23;;
61204;SDS011;47068;55.780;37.520;2024-03-23T03:31:13;1064.70;;;253.13;;
61204;SDS011;47068;55.780;37.520;2024-03-23T03:33:39;1069.85;;;253.80;;
61204;SDS011;47068;55.780;37.520;2024-03-23T03:36:04;1098.67;;;259.57;;
61204;SDS011;47068;55.780;37.520;2024-03-23T03:38:30;1081.28;;;251.88;;
61204;SDS011;47068;55.780;37.520;2024-03-23T03:40:56;1080.13;;;253.47;;
61204;SDS011;47068;55.780;37.520;2024-03-23T03:43:22;1080.70;;;259.00;;
61204;SDS011;47068;55.780;37.520;2024-03-23T03:45:52;1086.40;;;258.33;;
61204;SDS011;47068;55.780;37.520;2024-03-23T03:48:18;1101.27;;;262.30;;
61204;SDS011;47068;55.780;37.520;2024-03-23T03:50:43;1113.47;;;253.55;;
61204;SDS011;47068;55.780;37.520;2024-03-23T03:53:09;1131.10;;;257.33;;
61204;SDS011;47068;55.780;37.520;2024-03-23T03:55:34;1120.10;;;252.67;;
61204;SDS011;47068;55.780;37.520;2024-03-23T03:58:00;1120.50;;;251.60;;
61204;SDS011;47068;55.780;37.520;2024-03-23T04:00:25;1120.00;;;264.47;;
61204;SDS011;47068;55.780;37.520;2024-03-23T04:02:50;1119.90;;;262.43;;
61204;SDS011;47068;55.780;37.520;2024-03-23T04:05:16;1137.05;;;263.02;;
61204;SDS011;47068;55.780;37.520;2024-03-23T04:07:42;1092.57;;;257.40;;
61204;SDS011;47068;55.780;37.520;2024-03-23T04:10:07;1103.38;;;254.23;;
61204;SDS011;47068;55.780;37.520;2024-03-23T04:12:33;1064.45;;;261.15;;
61204;SDS011;47068;55.780;37.520;2024-03-23T04:14:59;1078.25;;;250.48;;
61204;SDS011;47068;55.780;37.520;2024-03-23T04:17:25;1097.32;;;250.90;;
61204;SDS011;47068;55.780;37.520;2024-03-23T04:19:52;1069.33;;;254.03;;
61204;SDS011;47068;55.780;37.520;2024-03-23T04:22:19;1048.23;;;257.63;;
61204;SDS011;47068;55.780;37.520;2024-03-23T04:24:44;1079.53;;;250.70;;
61204;SDS011;47068;55.780;37.520;2024-03-23T04:27:10;1081.97;;;266.92;;
61204;SDS011;47068;55.780;37.520;2024-03-23T04:29:35;1092.75;;;257.70;;
61204;SDS011;47068;55.780;37.520;2024-03-23T04:32:01;1097.83;;;262.50;;
61204;SDS011;47068;55.780;37.520;2024-03-23T04:34:27;1082.32;;;264.25;;
61204;SDS011;47068;55.780;37.520;2024-03-23T04:36:52;1138.33;;;261.80;;
61204;SDS011;47068;55.780;37.520;2024-03-23T04:39:18;1155.93;;;262.70;;
61204;SDS011;47068;55.780;37.520;2024-03-23T04:41:44;1118.43;;;257.47;;
61204;SDS011;47068;55.780;37.520;2024-03-23T04:44:10;1154.18;;;269.48;;
61204;SDS011;47068;55.780;37.520;2024-03-23T04:46:35;1109.72;;;260.60;;
61204;SDS011;47068;55.780;37.520;2024-03-23T04:49:01;1049.57;;;256.60;;
61204;SDS011;47068;55.780;37.520;2024-03-23T04:51:34;1036.97;;;262.57;;
61204;SDS011;47068;55.780;37.520;2024-03-23T04:54:01;1027.20;;;261.77;;
61204;SDS011;47068;55.780;37.520;2024-03-23T04:56:27;1052.32;;;264.50;;
61204;SDS011;47068;55.780;37.520;2024-03-23T04:58:52;1055.67;;;267.97;;
61204;SDS011;47068;55.780;37.520;2024-03-23T05:01:18;1075.67;;;268.83;;
61204;SDS011;47068;55.780;37.520;2024-03-23T05:03:43;1247.35;;;290.55;;
61204;SDS011;47068;55.780;37.520;2024-03-23T05:06:09;1091.73;;;267.80;;
61204;SDS011;47068;55.780;37.520;2024-03-23T05:08:34;1037.82;;;264.20;;
61204;SDS011;47068;55.780;37.520;2024-03-23T05:11:00;1030.53;;;258.20;;
61204;SDS011;47068;55.780;37.520;2024-03-23T05:13:25;1018.08;;;258.63;;
61204;SDS011;47068;55.780;37.520;2024-03-23T05:15:52;1014.77;;;255.30;;
61204;SDS011;47068;55.780;37.520;2024-03-23T05:18:18;1019.47;;;261.50;;
61204;SDS011;47068;55.780;37.520;2024-03-23T05:20:44;1026.07;;;264.40;;
61204;SDS011;47068;55.780;37.520;2024-03-23T05:23:09;1017.63;;;258.80;;
61204;SDS011;47068;55.780;37.520;2024-03-23T05:25:35;1026.57;;;267.45;;
61204;SDS011;47068;55.780;37.520;2024-03-23T05:28:00;1019.37;;;262.43;;
61204;SDS011;47068;55.780;37.520;2024-03-23T05:30:26;1052.77;;;264.80;;
61204;SDS011;47068;55.780;37.520;2024-03-23T05:32:51;1034.13;;;257.43;;
61204;SDS011;47068;55.780;37.520;2024-03-23T05:35:17;1023.22;;;264.77;;
61204;SDS011;47068;55.780;37.520;2024-03-23T05:37:42;1001.00;;;263.15;;
61204;SDS011;47068;55.780;37.520;2024-03-23T05:40:08;1007.83;;;268.07;;
61204;SDS011;47068;55.780;37.520;2024-03-23T05:42:34;996.70;;;263.10;;
61204;SDS011;47068;55.780;37.520;2024-03-23T05:45:00;1034.07;;;265.30;;
61204;SDS011;47068;55.780;37.520;2024-03-23T05:47:25;1029.23;;;267.50;;
61204;SDS011;47068;55.780;37.520;2024-03-23T05:49:51;1034.53;;;268.30;;
61204;SDS011;47068;55.780;37.520;2024-03-23T05:52:17;1020.20;;;261.70;;
61204;SDS011;47068;55.780;37.520;2024-03-23T05:54:42;1037.07;;;269.52;;
61204;SDS011;47068;55.780;37.520;2024-03-23T05:57:08;1023.90;;;269.53;;
61204;SDS011;47068;55.780;37.520;2024-03-23T05:59:34;1026.88;;;268.40;;
61204;SDS011;47068;55.780;37.520;2024-03-23T06:02:00;1014.57;;;264.73;;
61204;SDS011;47068;55.780;37.520;2024-03-23T06:04:25;1022.40;;;261.63;;
61204;SDS011;47068;55.780;37.520;2024-03-23T06:06:51;1007.67;;;254.77;;
61204;SDS011;47068;55.780;37.520;2024-03-23T06:09:20;1029.67;;;265.20;;
61204;SDS011;47068;55.780;37.520;2024-03-23T06:11:45;923.38;;;267.35;;
61204;SDS011;47068;55.780;37.520;2024-03-23T06:14:11;918.42;;;262.77;;
61204;SDS011;47068;55.780;37.520;2024-03-23T06:16:36;920.13;;;259.97;;
61204;SDS011;47068;55.780;37.520;2024-03-23T06:19:02;917.10;;;263.47;;
61204;SDS011;47068;55.780;37.520;2024-03-23T06:21:29;1189.67;;;290.13;;
61204;SDS011;47068;55.780;37.520;2024-03-23T06:23:55;1137.32;;;268.25;;
61204;SDS011;47068;55.780;37.520;2024-03-23T06:26:20;1140.00;;;272.77;;
61204;SDS011;47068;55.780;37.520;2024-03-23T06:28:46;1160.55;;;288.17;;
61204;SDS011;47068;55.780;37.520;2024-03-23T06:33:38;1202.73;;;295.60;;
61204;SDS011;47068;55.780;37.520;2024-03-23T06:36:07;1191.00;;;293.25;;
61204;SDS011;47068;55.780;37.520;2024-03-23T06:38:35;1166.60;;;286.73;;
61204;SDS011;47068;55.780;37.520;2024-03-23T06:41:06;1143.00;;;271.90;;
61204;SDS011;47068;55.780;37.520;2024-03-23T06:43:31;1150.37;;;272.37;;
61204;SDS011;47068;55.780;37.520;2024-03-23T06:45:57;1164.13;;;276.10;;
61204;SDS011;47068;55.780;37.520;2024-03-23T06:48:22;1133.97;;;271.52;;
61204;SDS011;47068;55.780;37.520;2024-03-23T06:50:48;1165.10;;;275.63;;
61204;SDS011;47068;55.780;37.520;2024-03-23T06:53:14;1160.82;;;273.23;;
61204;SDS011;47068;55.780;37.520;2024-03-23T06:55:39;1204.82;;;289.15;;
61204;SDS011;47068;55.780;37.520;2024-03-23T06:58:06;1154.32;;;274.98;;
61204;SDS011;47068;55.780;37.520;2024-03-23T07:00:31;1143.85;;;286.90;;
61204;SDS011;47068;55.780;37.520;2024-03-23T07:02:57;1045.63;;;265.50;;
61204;SDS011;47068;55.780;37.520;2024-03-23T07:05:23;1156.22;;;280.98;;
61204;SDS011;47068;55.780;37.520;2024-03-23T07:07:49;1167.32;;;281.65;;
61204;SDS011;47068;55.780;37.520;2024-03-23T07:10:14;1111.28;;;277.88;;
61204;SDS011;47068;55.780;37.520;2024-03-23T07:12:40;1058.07;;;267.33;;
61204;SDS011;47068;55.780;37.520;2024-03-23T07:15:06;1128.35;;;278.75;;
61204;SDS011;47068;55.780;37.520;2024-03-23T07:17:33;1124.73;;;273.87;;
61204;SDS011;47068;55.780;37.520;2024-03-23T07:20:00;1129.57;;;279.20;;
61204;SDS011;47068;55.780;37.520;2024-03-23T07:22:32;1100.00;;;271.87;;
61204;SDS011;47068;55.780;37.520;2024-03-23T07:25:01;1105.70;;;285.30;;
61204;SDS011;47068;55.780;37.520;2024-03-23T07:27:28;1125.87;;;274.83;;
61204;SDS011;47068;55.780;37.520;2024-03-23T07:29:53;1110.60;;;264.07;;
61204;SDS011;47068;55.780;37.520;2024-03-23T07:34:45;1077.33;;;273.03;;
61204;SDS011;47068;55.780;37.520;2024-03-23T07:37:11;1094.27;;;266.47;;
61204;SDS011;47068;55.780;37.520;2024-03-23T07:39:36;1102.05;;;270.20;;
61204;SDS011;47068;55.780;37.520;2024-03-23T07:42:02;1104.43;;;276.07;;
61204;SDS011;47068;55.780;37.520;2024-03-23T07:46:54;1093.93;;;260.50;;
61204;SDS011;47068;55.780;37.520;2024-03-23T07:49:19;1110.13;;;268.13;;
61204;SDS011;47068;55.780;37.520;2024-03-23T07:51:45;918.60;;;259.88;;
61204;SDS011;47068;55.780;37.520;2024-03-23T07:54:10;920.53;;;273.98;;
61204;SDS011;47068;55.780;37.520;2024-03-23T07:56:36;803.53;;;263.52;;
61204;SDS011;47068;55.780;37.520;2024-03-23T07:59:02;807.43;;;265.50;;
61204;SDS011;47068;55.780;37.520;2024-03-23T08:01:28;813.78;;;263.40;;
61204;SDS011;47068;55.780;37.520;2024-03-23T08:03:54;816.78;;;268.17;;
61204;SDS011;47068;55.780;37.520;2024-03-23T08:06:20;800.60;;;268.23;;
61204;SDS011;47068;55.780;37.520;2024-03-23T08:08:48;802.63;;;273.07;;
61204;SDS011;47068;55.780;37.520;2024-03-23T08:11:15;793.10;;;272.57;;
61204;SDS011;47068;55.780;37.520;2024-03-23T08:13:41;780.63;;;268.03;;
61204;SDS011;47068;55.780;37.520;2024-03-23T08:16:07;788.33;;;271.27;;
61204;SDS011;47068;55.780;37.520;2024-03-23T08:18:37;765.97;;;273.70;;
61204;SDS011;47068;55.780;37.520;2024-03-23T08:21:03;777.28;;;285.58;;
61204;SDS011;47068;55.780;37.520;2024-03-23T08:23:31;800.30;;;284.33;;
61204;SDS011;47068;55.780;37.520;2024-03-23T08:25:59;1263.63;;;320.40;;
61204;SDS011;47068;55.780;37.520;2024-03-23T08:28:28;1019.10;;;300.10;;
61204;SDS011;47068;55.780;37.520;2024-03-23T08:30:54;740.28;;;279.67;;
61204;SDS011;47068;55.780;37.520;2024-03-23T08:33:20;763.08;;;277.90;;
61204;SDS011;47068;55.780;37.520;2024-03-23T08:35:59;805.40;;;271.88;;
61204;SDS011;47068;55.780;37.520;2024-03-23T08:38:26;794.07;;;275.57;;
61204;SDS011;47068;55.780;37.520;2024-03-23T08:40:56;832.97;;;278.83;;
61204;SDS011;47068;55.780;37.520;2024-03-23T08:43:23;986.83;;;287.80;;
61204;SDS011;47068;55.780;37.520;2024-03-23T08:45:49;1074.90;;;288.83;;
61204;SDS011;47068;55.780;37.520;2024-03-23T08:48:15;775.70;;;280.10;;
61204;SDS011;47068;55.780;37.520;2024-03-23T08:50:41;698.58;;;299.85;;
61204;SDS011;47068;55.780;37.520;2024-03-23T08:53:06;688.83;;;285.90;;
61204;SDS011;47068;55.780;37.520;2024-03-23T08:55:31;694.97;;;291.90;;
61204;SDS011;47068;55.780;37.520;2024-03-23T08:57:57;716.97;;;285.93;;
61204;SDS011;47068;55.780;37.520;2024-03-23T09:00:22;1041.33;;;334.17;;
61204;SDS011;47068;55.780;37.520;2024-03-23T09:02:48;996.08;;;296.13;;
61204;SDS011;47068;55.780;37.520;2024-03-23T09:05:13;1081.15;;;334.80;;
61204;SDS011;47068;55.780;37.520;2024-03-23T09:07:39;682.67;;;288.03;;
61204;SDS011;47068;55.780;37.520;2024-03-23T09:10:04;717.40;;;287.40;;
61204;SDS011;47068;55.780;37.520;2024-03-23T09:12:30;761.42;;;287.35;;
61204;SDS011;47068;55.780;37.520;2024-03-23T09:14:56;710.80;;;282.50;;
61204;SDS011;47068;55.780;37.520;2024-03-23T09:17:21;713.50;;;289.10;;
61204;SDS011;47068;55.780;37.520;2024-03-23T09:19:47;685.72;;;284.25;;
61204;SDS011;47068;55.780;37.520;2024-03-23T09:22:12;704.57;;;298.40;;
61204;SDS011;47068;55.780;37.520;2024-03-23T09:24:38;697.13;;;298.17;;
61204;SDS011;47068;55.780;37.520;2024-03-23T09:27:04;691.92;;;289.70;;
61204;SDS011;47068;55.780;37.520;2024-03-23T09:29:30;617.88;;;297.00;;
61204;SDS011;47068;55.780;37.520;2024-03-23T09:31:55;579.20;;;295.03;;
61204;SDS011;47068;55.780;37.520;2024-03-23T09:34:21;603.67;;;281.90;;
61204;SDS011;47068;55.780;37.520;2024-03-23T09:36:46;655.15;;;295.88;;
61204;SDS011;47068;55.780;37.520;2024-03-23T09:39:16;648.90;;;287.00;;
61204;SDS011;47068;55.780;37.520;2024-03-23T09:41:41;670.93;;;294.00;;
61204;SDS011;47068;55.780;37.520;2024-03-23T09:44:07;616.13;;;294.37;;
61204;SDS011;47068;55.780;37.520;2024-03-23T09:46:32;689.78;;;298.60;;
61204;SDS011;47068;55.780;37.520;2024-03-23T09:49:00;705.13;;;303.87;;
61204;SDS011;47068;55.780;37.520;2024-03-23T09:51:26;672.92;;;296.63;;
61204;SDS011;47068;55.780;37.520;2024-03-23T09:53:51;679.50;;;294.83;;
61204;SDS011;47068;55.780;37.520;2024-03-23T09:58:43;649.23;;;284.03;;
61204;SDS011;47068;55.780;37.520;2024-03-23T10:01:09;729.10;;;303.23;;
61204;SDS011;47068;55.780;37.520;2024-03-23T10:03:44;831.28;;;336.75;;
61204;SDS011;47068;55.780;37.520;2024-03-23T10:06:10;789.13;;;369.10;;
61204;SDS011;47068;55.780;37.520;2024-03-23T10:08:36;737.25;;;328.42;;
61204;SDS011;47068;55.780;37.520;2024-03-23T10:11:20;688.40;;;325.10;;
61204;SDS011;47068;55.780;37.520;2024-03-23T10:13:46;673.13;;;310.93;;
61204;SDS011;47068;55.780;37.520;2024-03-23T10:16:14;669.35;;;311.75;;
61204;SDS011;47068;55.780;37.520;2024-03-23T10:18:46;686.93;;;315.37;;
61204;SDS011;47068;55.780;37.520;2024-03-23T10:21:11;693.93;;;300.67;;
61204;SDS011;47068;55.780;37.520;2024-03-23T10:23:40;707.65;;;321.15;;
61204;SDS011;47068;55.780;37.520;2024-03-23T10:31:28;700.47;;;332.17;;
61204;SDS011;47068;55.780;37.520;2024-03-23T10:33:54;703.35;;;334.02;;
61204;SDS011;47068;55.780;37.520;2024-03-23T10:36:20;685.85;;;319.23;;
61204;SDS011;47068;55.780;37.520;2024-03-23T10:38:47;715.30;;;346.93;;
61204;SDS011;47068;55.780;37.520;2024-03-23T10:41:14;719.53;;;336.40;;
61204;SDS011;47068;55.780;37.520;2024-03-23T10:43:40;742.47;;;363.40;;
61204;SDS011;47068;55.780;37.520;2024-03-23T10:46:05;740.58;;;346.25;;
61204;SDS011;47068;55.780;37.520;2024-03-23T10:48:32;745.53;;;367.98;;
61204;SDS011;47068;55.780;37.520;2024-03-23T10:50:58;759.27;;;349.20;;
61204;SDS011;47068;55.780;37.520;2024-03-23T10:53:25;759.97;;;337.55;;
61204;SDS011;47068;55.780;37.520;2024-03-23T10:55:52;716.90;;;324.80;;
61204;SDS011;47068;55.780;37.520;2024-03-23T10:58:21;725.00;;;342.40;;
61204;SDS011;47068;55.780;37.520;2024-03-23T11:00:52;719.80;;;359.43;;
61204;SDS011;47068;55.780;37.520;2024-03-23T11:03:29;660.07;;;333.53;;
61204;SDS011;47068;55.780;37.520;2024-03-23T11:05:55;654.45;;;338.05;;
61204;SDS011;47068;55.780;37.520;2024-03-23T11:08:37;661.40;;;342.42;;
61204;SDS011;47068;55.780;37.520;2024-03-23T11:11:22;672.43;;;323.77;;
61204;SDS011;47068;55.780;37.520;2024-03-23T11:13:50;702.47;;;369.77;;
61204;SDS011;47068;55.780;37.520;2024-03-23T11:16:24;660.63;;;333.40;;
61204;SDS011;47068;55.780;37.520;2024-03-23T11:18:50;657.53;;;332.73;;
61204;SDS011;47068;55.780;37.520;2024-03-23T11:24:19;689.60;;;349.13;;
61204;SDS011;47068;55.780;37.520;2024-03-23T11:26:46;643.57;;;347.67;;
61204;SDS011;47068;55.780;37.520;2024-03-23T11:29:12;657.03;;;365.35;;
61204;SDS011;47068;55.780;37.520;2024-03-23T11:31:38;664.17;;;376.70;;
61204;SDS011;47068;55.780;37.520;2024-03-23T11:34:10;654.03;;;355.17;;
61204;SDS011;47068;55.780;37.520;2024-03-23T11:36:35;683.53;;;390.93;;
61204;SDS011;47068;55.780;37.520;2024-03-23T11:39:11;668.37;;;346.20;;
61204;SDS011;47068;55.780;37.520;2024-03-23T11:44:20;696.40;;;344.53;;
61204;SDS011;47068;55.780;37.520;2024-03-23T11:46:47;665.37;;;320.30;;
61204;SDS011;47068;55.780;37.520;2024-03-23T11:49:29;658.95;;;347.70;;
61204;SDS011;47068;55.780;37.520;2024-03-23T11:51:55;677.87;;;367.93;;
61204;SDS011;47068;55.780;37.520;2024-03-23T11:54:22;661.37;;;368.63;;
61204;SDS011;47068;55.780;37.520;2024-03-23T11:56:57;634.30;;;325.10;;
61204;SDS011;47068;55.780;37.520;2024-03-23T12:02:06;691.87;;;345.57;;
61204;SDS011;47068;55.780;37.520;2024-03-23T12:09:35;710.20;;;346.00;;
61204;SDS011;47068;55.780;37.520;2024-03-23T12:12:14;703.05;;;362.58;;
61204;SDS011;47068;55.780;37.520;2024-03-23T12:15:01;712.47;;;335.27;;
61204;SDS011;47068;55.780;37.520;2024-03-23T12:17:33;723.50;;;339.83;;
61204;SDS011;47068;55.780;37.520;2024-03-23T12:20:02;684.27;;;337.50;;
61204;SDS011;47068;55.780;37.520;2024-03-23T12:22:28;704.53;;;360.05;;
61204;SDS011;47068;55.780;37.520;2024-03-23T12:27:20;722.23;;;342.00;;
61204;SDS011;47068;55.780;37.520;2024-03-23T12:29:45;684.00;;;328.35;;
61204;SDS011;47068;55.780;37.520;2024-03-23T12:32:14;666.33;;;310.17;;
61204;SDS011;47068;55.780;37.520;2024-03-23T12:34:41;700.67;;;371.17;;
61204;SDS011;47068;55.780;37.520;2024-03-23T12:37:07;708.10;;;378.45;;
61204;SDS011;47068;55.780;37.520;2024-03-23T12:39:32;689.42;;;346.02;;
61204;SDS011;47068;55.780;37.520;2024-03-23T12:42:00;665.30;;;340.87;;
61204;SDS011;47068;55.780;37.520;2024-03-23T12:44:25;705.85;;;325.00;;
61204;SDS011;47068;55.780;37.520;2024-03-23T12:46:51;704.37;;;316.87;;
61204;SDS011;47068;55.780;37.520;2024-03-23T12:49:16;659.60;;;308.03;;
61204;SDS011;47068;55.780;37.520;2024-03-23T12:51:47;648.93;;;304.10;;
61204;SDS011;47068;55.780;37.520;2024-03-23T12:54:19;647.97;;;291.07;;
61204;SDS011;47068;55.780;37.520;2024-03-23T12:56:45;665.63;;;300.30;;
61204;SDS011;47068;55.780;37.520;2024-03-23T12:59:11;687.72;;;302.17;;
61204;SDS011;47068;55.780;37.520;2024-03-23T13:01:36;671.47;;;292.70;;
61204;SDS011;47068;55.780;37.520;2024-03-23T13:04:01;678.87;;;302.17;;
61204;SDS011;47068;55.780;37.520;2024-03-23T13:06:27;685.67;;;304.98;;
61204;SDS011;47068;55.780;37.520;2024-03-23T13:08:57;686.97;;;293.73;;
61204;SDS011;47068;55.780;37.520;2024-03-23T13:11:22;680.43;;;300.27;;
61204;SDS011;47068;55.780;37.520;2024-03-23T13:13:48;678.35;;;297.13;;
61204;SDS011;47068;55.780;37.520;2024-03-23T13:16:13;689.03;;;295.07;;
61204;SDS011;47068;55.780;37.520;2024-03-23T13:18:38;704.67;;;307.97;;
61204;SDS011;47068;55.780;37.520;2024-03-23T13:21:04;690.97;;;291.70;;
61204;SDS011;47068;55.780;37.520;2024-03-23T13:23:29;707.30;;;296.27;;
61204;SDS011;47068;55.780;37.520;2024-03-23T13:25:56;683.27;;;291.47;;
61204;SDS011;47068;55.780;37.520;2024-03-23T13:28:22;693.63;;;299.73;;
61204;SDS011;47068;55.780;37.520;2024-03-23T13:30:51;699.97;;;301.02;;
61204;SDS011;47068;55.780;37.520;2024-03-23T13:33:17;675.63;;;291.60;;
61204;SDS011;47068;55.780;37.520;2024-03-23T13:35:50;686.35;;;306.33;;
61204;SDS011;47068;55.780;37.520;2024-03-23T13:38:19;671.50;;;297.15;;
61204;SDS011;47068;55.780;37.520;2024-03-23T13:40:51;677.80;;;302.27;;
61204;SDS011;47068;55.780;37.520;2024-03-23T13:43:21;674.25;;;299.45;;
61204;SDS011;47068;55.780;37.520;2024-03-23T13:45:48;675.57;;;306.53;;
61204;SDS011;47068;55.780;37.520;2024-03-23T13:48:16;671.83;;;311.90;;
61204;SDS011;47068;55.780;37.520;2024-03-23T13:50:43;681.90;;;318.37;;
61204;SDS011;47068;55.780;37.520;2024-03-23T13:53:08;677.33;;;307.60;;
61204;SDS011;47068;55.780;37.520;2024-03-23T13:55:34;686.58;;;307.63;;
61204;SDS011;47068;55.780;37.520;2024-03-23T13:58:00;675.63;;;295.73;;
61204;SDS011;47068;55.780;37.520;2024-03-23T14:00:26;683.47;;;310.27;;
61204;SDS011;47068;55.780;37.520;2024-03-23T14:02:51;664.58;;;302.23;;
61204;SDS011;47068;55.780;37.520;2024-03-23T14:05:17;672.00;;;300.23;;
61204;SDS011;47068;55.780;37.520;2024-03-23T14:07:43;662.10;;;290.05;;
61204;SDS011;47068;55.780;37.520;2024-03-23T14:10:08;680.53;;;297.38;;
61204;SDS011;47068;55.780;37.520;2024-03-23T14:12:36;699.70;;;309.77;;
61204;SDS011;47068;55.780;37.520;2024-03-23T14:15:05;683.55;;;296.85;;
61204;SDS011;47068;55.780;37.520;2024-03-23T14:17:31;685.80;;;296.17;;
61204;SDS011;47068;55.780;37.520;2024-03-23T14:19:57;689.55;;;295.83;;
61204;SDS011;47068;55.780;37.520;2024-03-23T14:22:26;698.27;;;302.33;;
61204;SDS011;47068;55.780;37.520;2024-03-23T14:24:54;690.17;;;296.00;;
61204;SDS011;47068;55.780;37.520;2024-03-23T14:27:19;690.23;;;310.43;;
61204;SDS011;47068;55.780;37.520;2024-03-23T14:29:46;678.40;;;293.27;;
61204;SDS011;47068;55.780;37.520;2024-03-23T14:32:12;691.75;;;302.88;;
61204;SDS011;47068;55.780;37.520;2024-03-23T14:34:37;682.40;;;306.38;;
61204;SDS011;47068;55.780;37.520;2024-03-23T14:37:03;672.40;;;301.58;;
61204;SDS011;47068;55.780;37.520;2024-03-23T14:39:30;673.37;;;298.90;;
61204;SDS011;47068;55.780;37.520;2024-03-23T14:41:56;685.40;;;320.13;;
61204;SDS011;47068;55.780;37.520;2024-03-23T14:44:22;680.05;;;310.85;;
61204;SDS011;47068;55.780;37.520;2024-03-23T14:46:48;680.03;;;312.83;;
61204;SDS011;47068;55.780;37.520;2024-03-23T14:51:42;1254.23;;;370.53;;
61204;SDS011;47068;55.780;37.520;2024-03-23T14:54:08;1179.00;;;353.05;;
61204;SDS011;47068;55.780;37.520;2024-03-23T14:56:34;764.63;;;304.95;;
61204;SDS011;47068;55.780;37.520;2024-03-23T14:59:00;1370.75;;;365.50;;
61204;SDS011;47068;55.780;37.520;2024-03-23T15:01:25;684.17;;;350.95;;
61204;SDS011;47068;55.780;37.520;2024-03-23T15:03:51;687.28;;;321.10;;